createdAt,value
2019-03-24T00:04:13.826Z,30.53
2019-03-24T00:07:05.057Z,26.37
2019-03-24T00:10:07.654Z,26.90
2019-03-24T00:12:40.157Z,27.97
2019-03-24T00:15:42.166Z,30.10
2019-03-24T00:18:15.230Z,30.20
2019-03-24T00:21:16.939Z,33.73
2019-03-24T00:23:50.968Z,39.47
2019-03-24T00:26:52.927Z,36.70
2019-03-24T00:29:27.065Z,37.30
2019-03-24T00:32:29.998Z,36.00
2019-03-24T00:35:02.751Z,34.53
2019-03-24T00:37:54.011Z,42.60
2019-03-24T00:40:55.188Z,43.63
2019-03-24T00:43:46.435Z,49.13
2019-03-24T00:46:37.786Z,45.73
2019-03-24T00:49:28.987Z,47.77
2019-03-24T00:54:56.476Z,36.17
2019-03-24T01:09:08.923Z,39.03
2019-03-24T01:18:05.856Z,33.23
2019-03-24T01:26:55.845Z,33.27
2019-03-24T01:29:41.159Z,37.70
2019-03-24T01:32:12.981Z,30.33
2019-03-24T01:35:15.452Z,28.97
2019-03-24T01:37:51.615Z,31.87
2019-03-24T01:40:42.774Z,31.80
2019-03-24T01:43:36.178Z,33.60
2019-03-24T01:46:10.074Z,37.47
2019-03-24T01:49:12.181Z,33.33
2019-03-24T01:57:14.538Z,35.40
2019-03-24T02:00:06.215Z,32.50
2019-03-24T02:02:57.381Z,43.10
2019-03-24T02:05:47.992Z,30.03
2019-03-24T02:14:11.054Z,41.20
2019-03-24T02:17:02.201Z,35.13
2019-03-24T02:19:53.352Z,29.43
2019-03-24T02:25:28.446Z,34.67
2019-03-24T02:28:19.571Z,30.70
2019-03-24T02:31:22.248Z,30.33
2019-03-24T02:34:15.305Z,32.77
2019-03-24T02:37:17.427Z,35.77
2019-03-24T02:40:09.276Z,29.80
2019-03-24T02:43:00.426Z,30.93
2019-03-24T02:45:51.561Z,38.03
2019-03-24T02:51:27.443Z,28.33
2019-03-24T02:54:18.612Z,29.60
2019-03-24T02:57:20.492Z,31.00
2019-03-24T03:02:36.511Z,38.57
2019-03-24T03:05:27.639Z,38.03
2019-03-24T03:11:04.624Z,36.67
2019-03-24T03:17:14.305Z,34.27
2019-03-24T03:19:46.570Z,38.30
2019-03-24T03:22:48.933Z,29.03
2019-03-24T03:25:32.309Z,34.27
2019-03-24T03:28:06.568Z,44.80
2019-03-24T03:31:27.939Z,39.40
2019-03-24T03:34:04.225Z,34.97
2019-03-24T03:36:43.089Z,36.93
2019-03-24T03:45:44.073Z,35.70
2019-03-24T03:48:37.499Z,35.00
2019-03-24T03:54:13.792Z,44.53
2019-03-24T03:57:16.161Z,32.33
2019-03-24T04:00:00.608Z,32.87
2019-03-24T04:02:44.212Z,37.13
2019-03-24T04:08:03.775Z,32.33
2019-03-24T04:11:05.631Z,33.77
2019-03-24T04:13:49.770Z,41.60
2019-03-24T04:16:23.702Z,44.20
2019-03-24T04:19:14.928Z,35.00
2019-03-24T04:22:18.393Z,36.70
2019-03-24T04:28:07.526Z,38.70
2019-03-24T04:30:50.103Z,36.53
2019-03-24T04:39:02.945Z,38.40
2019-03-24T04:41:47.099Z,34.23
2019-03-24T04:44:39.686Z,41.17
2019-03-24T04:47:30.814Z,36.30
2019-03-24T04:50:32.981Z,35.00
2019-03-24T04:53:17.769Z,46.63
2019-03-24T04:56:11.340Z,46.03
2019-03-24T04:59:13.338Z,35.60
2019-03-24T05:01:45.234Z,33.27
2019-03-24T05:04:36.423Z,48.93
2019-03-24T05:10:30.937Z,43.00
2019-03-24T05:13:33.514Z,45.93
2019-03-24T05:16:05.548Z,38.20
2019-03-24T05:21:42.435Z,48.17
2019-03-24T05:30:13.633Z,59.80
2019-03-24T05:32:56.790Z,50.53
2019-03-24T05:38:14.815Z,57.50
2019-03-24T05:44:12.682Z,55.87
2019-03-24T05:47:03.847Z,64.40
2019-03-24T05:49:55.029Z,58.63
2019-03-24T05:55:46.446Z,61.03
2019-03-24T05:58:37.093Z,67.57
2019-03-24T06:01:28.318Z,57.87
2019-03-24T06:04:30.910Z,57.23
2019-03-24T06:07:16.573Z,56.30
2019-03-24T06:18:21.843Z,51.60
2019-03-24T06:23:58.011Z,52.00
2019-03-24T06:26:41.655Z,65.20
2019-03-24T06:29:13.455Z,59.67
2019-03-24T06:32:17.387Z,59.70
2019-03-24T06:35:12.939Z,57.40
2019-03-24T06:38:15.218Z,50.17
2019-03-24T06:40:49.841Z,56.80
2019-03-24T06:44:01.560Z,53.20
2019-03-24T06:47:03.958Z,50.43
2019-03-24T06:49:38.370Z,53.27
2019-03-24T06:52:40.375Z,69.73
2019-03-24T06:58:39.267Z,64.10
2019-03-24T07:02:10.440Z,60.40
2019-03-24T07:05:01.608Z,69.87
2019-03-24T07:11:13.504Z,78.47
2019-03-24T07:14:13.452Z,81.20
2019-03-24T07:17:04.599Z,73.77
2019-03-24T07:20:06.788Z,77.00
2019-03-24T07:22:51.784Z,90.23
2019-03-24T07:25:36.746Z,91.77
2019-03-24T07:33:47.606Z,88.57
2019-03-24T07:36:21.659Z,97.03
2019-03-24T07:39:12.313Z,92.07
2019-03-24T07:42:15.627Z,83.47
2019-03-24T07:45:07.479Z,78.80
2019-03-24T07:48:00.392Z,88.70
2019-03-24T07:50:51.898Z,90.83
2019-03-24T07:53:53.748Z,85.33
2019-03-24T07:56:45.743Z,84.47
2019-03-24T07:59:47.413Z,83.23
2019-03-24T08:05:18.293Z,89.70
2019-03-24T08:08:10.993Z,90.63
2019-03-24T08:13:57.790Z,92.40
2019-03-24T08:16:50.670Z,84.87
2019-03-24T08:20:00.674Z,82.07
2019-03-24T08:22:51.917Z,90.90
2019-03-24T08:28:39.831Z,87.50
2019-03-24T08:31:31.115Z,85.23
2019-03-24T08:34:03.023Z,88.23
2019-03-24T08:37:13.135Z,86.70
2019-03-24T08:42:51.447Z,84.30
2019-03-24T08:54:06.604Z,84.73
2019-03-24T08:56:52.188Z,81.70
2019-03-24T09:02:09.107Z,79.20
2019-03-24T09:05:11.607Z,78.50
2019-03-24T09:13:54.976Z,84.93
2019-03-24T09:16:56.754Z,76.80
2019-03-24T09:19:42.399Z,79.80
2019-03-24T09:22:26.315Z,79.67
2019-03-24T09:28:14.703Z,83.10
2019-03-24T09:31:07.887Z,77.77
2019-03-24T09:36:43.316Z,76.87
2019-03-24T09:39:22.358Z,80.03
2019-03-24T09:42:13.675Z,72.40
2019-03-24T09:45:04.907Z,69.47
2019-03-24T09:47:56.113Z,73.70
2019-03-24T09:53:33.193Z,72.80
2019-03-24T10:01:53.212Z,62.37
2019-03-24T10:05:19.381Z,67.73
2019-03-24T10:10:49.975Z,63.83
2019-03-24T10:13:22.821Z,68.03
2019-03-24T10:16:25.024Z,65.43
2019-03-24T10:18:59.574Z,66.30
2019-03-24T10:22:01.824Z,64.33
2019-03-24T10:27:30.603Z,58.37
2019-03-24T10:30:13.388Z,64.03
2019-03-24T10:32:47.413Z,58.20
2019-03-24T10:35:38.543Z,65.43
2019-03-24T10:38:48.580Z,64.33
2019-03-24T10:44:25.618Z,56.90
2019-03-24T10:46:57.765Z,59.30
2019-03-24T10:49:48.939Z,64.50
2019-03-24T10:52:40.211Z,55.43
2019-03-24T10:58:37.289Z,65.37
2019-03-24T11:04:26.594Z,68.00
2019-03-24T11:07:10.023Z,65.13
2019-03-24T11:09:52.537Z,69.00
2019-03-24T11:18:32.595Z,70.73
2019-03-24T11:21:23.785Z,65.67
2019-03-24T11:24:15.038Z,62.73
2019-03-24T11:27:07.178Z,66.10
2019-03-24T11:30:00.034Z,71.37
2019-03-24T11:35:34.697Z,71.57
2019-03-24T11:38:44.684Z,68.33
2019-03-24T11:41:54.674Z,69.33
2019-03-24T11:45:04.669Z,73.23
2019-03-24T11:47:55.813Z,62.50
2019-03-24T11:56:13.942Z,73.10
2019-03-24T11:59:15.891Z,61.10
2019-03-24T12:01:47.690Z,64.53
2019-03-24T12:04:50.470Z,73.53
2019-03-24T12:07:34.522Z,66.63
2019-03-24T12:13:23.480Z,68.30
2019-03-24T12:16:08.591Z,60.30
2019-03-24T12:18:59.819Z,63.97
2019-03-24T12:25:07.602Z,61.43
2019-03-24T12:30:38.855Z,66.03
2019-03-24T12:33:21.602Z,64.20
2019-03-24T12:35:54.172Z,64.80
2019-03-24T12:38:56.077Z,70.90
2019-03-24T12:41:30.490Z,65.40
2019-03-24T12:44:33.092Z,67.03
2019-03-24T12:47:05.893Z,66.17
2019-03-24T12:49:49.378Z,61.03
2019-03-24T12:52:32.261Z,64.23
2019-03-24T12:55:06.255Z,57.37
2019-03-24T12:58:08.253Z,59.13
2019-03-24T13:03:56.028Z,59.90
2019-03-24T13:06:41.240Z,64.67
2019-03-24T13:09:13.220Z,62.00
2019-03-24T13:12:15.726Z,70.60
2019-03-24T13:15:01.030Z,60.83
2019-03-24T13:17:33.570Z,53.00
2019-03-24T13:20:38.598Z,63.53
2019-03-24T13:26:05.870Z,63.57
2019-03-24T13:28:38.240Z,71.93
2019-03-24T13:31:40.684Z,66.23
2019-03-24T13:34:24.375Z,63.03
2019-03-24T13:43:03.988Z,58.00
2019-03-24T13:51:43.998Z,69.63
2019-03-24T13:54:35.168Z,63.93
2019-03-24T13:57:37.303Z,67.80
2019-03-24T14:00:40.409Z,58.83
2019-03-24T14:03:25.465Z,65.53
2019-03-24T14:06:16.304Z,55.67
2019-03-24T14:09:19.236Z,58.97
2019-03-24T14:14:57.761Z,58.10
2019-03-24T14:17:48.948Z,58.63
2019-03-24T14:23:33.632Z,59.10
2019-03-24T14:28:52.345Z,61.93
2019-03-24T14:31:43.493Z,54.00
2019-03-24T14:34:33.747Z,64.97
2019-03-24T14:37:25.719Z,65.30
2019-03-24T14:43:24.453Z,71.47
2019-03-24T14:45:56.478Z,67.17
2019-03-24T14:48:47.612Z,65.70
2019-03-24T14:54:04.617Z,60.87
2019-03-24T14:57:06.999Z,61.17
2019-03-24T15:02:40.778Z,67.73
2019-03-24T15:05:12.826Z,64.27
2019-03-24T15:08:15.050Z,61.57
2019-03-24T15:10:49.471Z,64.67
2019-03-24T15:13:40.731Z,56.73
2019-03-24T15:16:42.594Z,56.97
2019-03-24T15:21:58.677Z,58.33
2019-03-24T15:30:51.824Z,65.23
2019-03-24T15:33:36.895Z,55.50
2019-03-24T15:44:56.669Z,60.43
2019-03-24T15:47:28.760Z,59.60
2019-03-24T15:50:19.945Z,60.63
2019-03-24T15:53:22.526Z,58.33
2019-03-24T16:02:03.232Z,58.30
2019-03-24T16:04:54.374Z,64.63
2019-03-24T16:07:56.623Z,59.67
2019-03-24T16:10:35.127Z,64.27
2019-03-24T16:16:10.501Z,64.67
2019-03-24T16:18:44.871Z,57.73
2019-03-24T16:21:31.087Z,56.80
2019-03-24T16:26:49.442Z,57.40
2019-03-24T16:29:51.933Z,61.30
2019-03-24T16:32:25.262Z,61.57
2019-03-24T16:43:39.608Z,63.70
2019-03-24T16:46:12.191Z,59.57
2019-03-24T16:52:00.985Z,63.03
2019-03-24T16:54:44.157Z,60.73
2019-03-24T16:57:27.156Z,66.13
2019-03-24T17:08:52.098Z,70.40
2019-03-24T17:11:43.346Z,65.67
2019-03-24T17:14:51.742Z,61.03
2019-03-24T17:28:57.569Z,64.80
2019-03-24T17:31:31.289Z,68.27
2019-03-24T17:39:51.384Z,64.33
2019-03-24T17:45:29.546Z,64.37
2019-03-24T17:48:35.296Z,62.63
2019-03-24T17:51:35.118Z,64.47
2019-03-24T17:54:18.876Z,63.23
2019-03-24T18:03:19.939Z,54.53
2019-03-24T18:12:11.378Z,62.93
2019-03-24T18:15:02.720Z,60.83
2019-03-24T18:17:53.884Z,64.10
2019-03-24T18:20:45.089Z,62.73
2019-03-24T18:23:36.230Z,64.03
2019-03-24T18:26:38.443Z,62.53
2019-03-24T18:29:25.560Z,68.67
2019-03-24T18:31:58.571Z,60.60
2019-03-24T18:37:55.102Z,64.63
2019-03-24T18:40:46.276Z,61.33
2019-03-24T18:46:41.471Z,70.73
2019-03-24T18:49:51.500Z,60.37
2019-03-24T18:52:42.789Z,68.50
2019-03-24T18:55:34.260Z,71.73
2019-03-24T18:58:25.351Z,57.30
2019-03-24T19:04:02.055Z,58.60
2019-03-24T19:06:53.292Z,59.57
2019-03-24T19:09:44.477Z,58.80
2019-03-24T19:12:16.409Z,60.73
2019-03-24T19:21:02.827Z,60.80
2019-03-24T19:23:55.845Z,56.17
2019-03-24T19:26:48.354Z,57.70
2019-03-24T19:29:22.944Z,56.00
2019-03-24T19:32:14.227Z,61.13
2019-03-24T19:41:30.855Z,45.67
2019-03-24T19:44:04.938Z,52.00
2019-03-24T20:01:16.599Z,66.97
2019-03-24T20:04:18.873Z,73.77
2019-03-24T20:07:02.533Z,74.97
2019-03-24T20:09:34.942Z,79.73
2019-03-24T20:12:26.154Z,88.77
2019-03-24T20:15:34.555Z,75.00
2019-03-24T20:18:25.789Z,80.40
2019-03-24T20:21:17.078Z,83.87
2019-03-24T20:33:32.710Z,90.97
2019-03-24T20:36:16.207Z,77.73
2019-03-24T20:44:30.680Z,90.57
2019-03-24T20:47:05.259Z,80.63
2019-03-24T20:50:07.534Z,88.03
2019-03-24T20:58:28.063Z,100.13
2019-03-24T21:01:19.594Z,93.50
2019-03-24T21:03:55.651Z,95.87
2019-03-24T21:07:08.197Z,104.53
2019-03-24T21:09:49.389Z,83.97
2019-03-24T21:12:59.410Z,82.03
2019-03-24T21:15:54.789Z,93.97
2019-03-24T21:18:46.188Z,90.87
2019-03-24T21:24:53.897Z,94.50
2019-03-24T21:27:27.467Z,80.33
2019-03-24T21:30:11.702Z,88.70
2019-03-24T21:32:45.508Z,81.80
2019-03-24T21:35:36.764Z,87.63
2019-03-24T21:38:38.580Z,85.60
2019-03-24T21:41:11.289Z,87.47
2019-03-24T21:44:02.464Z,85.20
2019-03-24T21:46:53.694Z,88.83
2019-03-24T21:49:44.930Z,79.00
2019-03-24T21:52:27.495Z,89.80
2019-03-24T21:55:18.652Z,87.97
2019-03-24T21:58:01.861Z,89.73
2019-03-24T22:00:42.521Z,93.27
2019-03-24T22:03:27.725Z,87.93
2019-03-24T22:09:02.290Z,89.13
2019-03-24T22:12:04.051Z,93.40
2019-03-24T22:14:48.852Z,84.30
2019-03-24T22:17:33.883Z,89.63
2019-03-24T22:20:48.199Z,87.00
2019-03-24T22:26:16.314Z,96.87
2019-03-24T22:31:52.617Z,89.67
2019-03-24T22:34:55.097Z,90.70
2019-03-24T22:37:27.603Z,93.43
2019-03-24T22:46:51.025Z,89.07
2019-03-24T22:52:24.879Z,79.47
2019-03-24T22:55:55.311Z,81.37
2019-03-24T23:04:24.133Z,88.73
2019-03-24T23:10:02.602Z,82.93
2019-03-24T23:13:24.164Z,88.67
2019-03-24T23:16:07.948Z,92.17
2019-03-24T23:24:44.690Z,87.70
2019-03-24T23:27:27.665Z,86.17
2019-03-24T23:30:01.993Z,91.73
2019-03-24T23:36:18.101Z,90.87
2019-03-24T23:48:24.269Z,84.77
